Time;durP1;ratioP1;P1;durP2;ratioP2;P2;SDS_P1;SDS_P2;PMS_P1;PMS_P2;Temp;Humidity;BMP_temperature;BMP_pressure;BME280_temperature;BME280_humidity;BME280_pressure;Samples;Min_cycle;Max_cycle;Signal;HPM_P1;HPM_P2
2022/09/10 00:00:35;;;;;;;34.40;20.65;;;;;;;;;;5068186;28;20053;-75
2022/09/10 00:03:02;;;;;;;33.20;19.83;;;;;;;;;;5031982;28;20049;-75
2022/09/10 00:05:28;;;;;;;37.05;20.73;;;;;;;;;;5043857;28;20132;-75
2022/09/10 00:07:55;;;;;;;32.30;19.95;;;;;;;;;;5051323;28;20052;-76
2022/09/10 00:10:21;;;;;;;38.25;20.73;;;;;;;;;;5051450;28;20085;-76
2022/09/10 00:12:47;;;;;;;33.92;20.17;;;;;;;;;;5051403;28;20037;-75
2022/09/10 00:15:14;;;;;;;32.45;20.08;;;;;;;;;;5067976;28;20319;-75
2022/09/10 00:17:40;;;;;;;37.28;20.92;;;;;;;;;;5068219;28;20564;-75
2022/09/10 00:20:08;;;;;;;35.10;20.95;;;;;;;;;;5034797;28;20084;-76
2022/09/10 00:22:34;;;;;;;36.13;21.17;;;;;;;;;;5051670;28;20071;-75
2022/09/10 00:25:00;;;;;;;37.15;21.30;;;;;;;;;;5034571;28;20052;-75
2022/09/10 00:27:26;;;;;;;36.25;21.55;;;;;;;;;;5051140;28;20041;-76
2022/09/10 00:29:53;;;;;;;40.42;22.60;;;;;;;;;;5034776;28;20056;-75
2022/09/10 00:32:20;;;;;;;39.83;23.15;;;;;;;;;;5051070;28;20120;-75
2022/09/10 00:34:47;;;;;;;38.30;23.35;;;;;;;;;;5051048;28;20041;-75
2022/09/10 00:37:13;;;;;;;39.60;22.95;;;;;;;;;;5034768;28;20045;-75
2022/09/10 00:39:39;;;;;;;39.50;23.83;;;;;;;;;;5067670;28;20037;-75
2022/09/10 00:42:06;;;;;;;42.83;24.55;;;;;;;;;;5050776;28;20039;-71
2022/09/10 00:44:41;;;;;;;46.38;25.90;;;;;;;;;;5067008;28;20037;-71
2022/09/10 00:47:12;;;;;;;40.47;25.20;;;;;;;;;;5050836;28;20041;-71
2022/09/10 00:49:43;;;;;;;46.15;26.40;;;;;;;;;;5050512;28;20041;-71
2022/09/10 00:52:10;;;;;;;46.40;26.42;;;;;;;;;;5067045;28;20052;-72
2022/09/10 00:54:37;;;;;;;47.67;26.83;;;;;;;;;;5070987;28;20037;-71
2022/09/10 00:57:06;;;;;;;40.05;25.17;;;;;;;;;;5054927;28;20052;-71
2022/09/10 00:59:33;;;;;;;46.10;26.52;;;;;;;;;;5070812;28;20059;-71
2022/09/10 01:01:59;;;;;;;39.33;23.52;;;;;;;;;;5070690;28;20059;-72
2022/09/10 01:04:27;;;;;;;41.00;25.58;;;;;;;;;;5071677;28;20088;-75
2022/09/10 01:06:54;;;;;;;43.47;26.20;;;;;;;;;;5054408;28;20081;-75
2022/09/10 01:09:21;;;;;;;41.95;26.40;;;;;;;;;;5071151;28;20061;-75
2022/09/10 01:12:03;;;;;;;44.67;26.48;;;;;;;;;;5058054;28;20053;-75
2022/09/10 01:14:54;;;;;;;40.75;25.52;;;;;;;;;;5029556;28;20037;-75
2022/09/10 01:17:24;;;;;;;41.80;25.08;;;;;;;;;;5055598;28;20045;-75
2022/09/10 01:19:50;;;;;;;40.65;24.10;;;;;;;;;;5055622;28;20116;-75
2022/09/10 01:22:35;;;;;;;36.88;24.25;;;;;;;;;;5054095;28;20073;-75
2022/09/10 01:25:04;;;;;;;36.10;23.58;;;;;;;;;;5054557;28;20081;-75
2022/09/10 01:27:36;;;;;;;35.25;22.38;;;;;;;;;;5053640;28;20379;-71
2022/09/10 01:30:18;;;;;;;39.10;23.13;;;;;;;;;;5054531;28;20033;-71
2022/09/10 01:32:56;;;;;;;40.05;22.73;;;;;;;;;;5069885;28;20124;-71
2022/09/10 01:35:25;;;;;;;35.95;23.38;;;;;;;;;;5036387;28;20069;-71
2022/09/10 01:37:54;;;;;;;40.15;24.00;;;;;;;;;;5053455;28;20039;-71
2022/09/10 01:40:28;;;;;;;41.97;24.50;;;;;;;;;;5053117;28;20571;-71
2022/09/10 01:42:59;;;;;;;36.40;24.27;;;;;;;;;;5069828;28;20079;-71
2022/09/10 01:45:26;;;;;;;31.30;22.02;;;;;;;;;;5069661;28;20099;-71
2022/09/10 01:47:52;;;;;;;40.35;23.90;;;;;;;;;;5069676;28;20060;-71
2022/09/10 01:50:22;;;;;;;36.95;23.95;;;;;;;;;;5069656;28;20041;-71
2022/09/10 01:52:50;;;;;;;37.63;23.65;;;;;;;;;;5053014;28;20532;-71
2022/09/10 01:55:31;;;;;;;41.85;25.88;;;;;;;;;;5069567;28;20045;-71
2022/09/10 01:57:57;;;;;;;36.30;24.15;;;;;;;;;;5069346;28;20045;-71
2022/09/10 02:00:24;;;;;;;42.15;25.20;;;;;;;;;;5036046;28;20044;-70
2022/09/10 02:02:50;;;;;;;40.35;25.98;;;;;;;;;;5051821;28;20056;-71
2022/09/10 02:05:18;;;;;;;42.83;24.73;;;;;;;;;;5050962;28;20033;-71
2022/09/10 02:07:45;;;;;;;39.38;24.88;;;;;;;;;;5069523;28;20045;-71
2022/09/10 02:10:11;;;;;;;36.53;24.33;;;;;;;;;;5069149;28;20390;-71
2022/09/10 02:12:38;;;;;;;41.75;25.83;;;;;;;;;;5052627;28;20044;-71
2022/09/10 02:15:06;;;;;;;41.25;25.08;;;;;;;;;;5053744;28;20052;-71
2022/09/10 02:17:35;;;;;;;39.47;24.85;;;;;;;;;;5035464;28;20053;-71
2022/09/10 02:20:02;;;;;;;40.95;24.77;;;;;;;;;;5052336;28;20055;-71
2022/09/10 02:22:30;;;;;;;40.03;24.77;;;;;;;;;;5052370;28;20494;-71
2022/09/10 02:24:56;;;;;;;42.70;25.17;;;;;;;;;;5052449;28;20123;-71
2022/09/10 02:27:22;;;;;;;41.78;24.40;;;;;;;;;;5034861;28;20043;-72
2022/09/10 02:29:49;;;;;;;39.63;24.27;;;;;;;;;;5053837;28;20043;-71
2022/09/10 02:32:16;;;;;;;40.88;25.27;;;;;;;;;;5053189;28;20489;-72
2022/09/10 02:34:42;;;;;;;41.13;25.35;;;;;;;;;;5069097;28;20044;-71
2022/09/10 02:37:08;;;;;;;40.33;24.27;;;;;;;;;;5053077;28;20044;-72
2022/09/10 02:39:34;;;;;;;43.65;25.27;;;;;;;;;;5051847;28;20095;-71
2022/09/10 02:42:00;;;;;;;43.72;25.13;;;;;;;;;;5052218;28;20378;-71
2022/09/10 02:44:27;;;;;;;41.60;24.83;;;;;;;;;;5050496;28;20044;-71
2022/09/10 02:46:53;;;;;;;40.88;24.95;;;;;;;;;;5052206;28;20049;-71
2022/09/10 02:49:19;;;;;;;43.75;25.98;;;;;;;;;;5051546;28;20378;-75
2022/09/10 02:51:46;;;;;;;37.28;22.00;;;;;;;;;;5054126;28;20124;-75
2022/09/10 02:54:12;;;;;;;43.30;25.17;;;;;;;;;;5038173;28;20515;-75
2022/09/10 02:56:38;;;;;;;43.13;25.77;;;;;;;;;;5054068;28;20037;-75
2022/09/10 02:59:05;;;;;;;43.60;25.23;;;;;;;;;;5052202;28;20057;-75
2022/09/10 03:01:33;;;;;;;39.08;24.38;;;;;;;;;;5052324;28;20041;-75
2022/09/10 03:03:59;;;;;;;36.42;22.70;;;;;;;;;;5052093;28;20048;-75
2022/09/10 03:06:26;;;;;;;43.25;25.08;;;;;;;;;;5035671;28;20041;-75
2022/09/10 03:08:56;;;;;;;41.00;24.80;;;;;;;;;;5052194;28;20556;-75
2022/09/10 03:11:23;;;;;;;42.72;25.00;;;;;;;;;;5052430;28;20142;-75
2022/09/10 03:13:49;;;;;;;43.03;24.90;;;;;;;;;;5035431;28;20032;-75
2022/09/10 03:16:15;;;;;;;38.40;24.17;;;;;;;;;;5051997;28;20072;-70
2022/09/10 03:18:42;;;;;;;41.22;25.15;;;;;;;;;;5068008;28;20098;-71
2022/09/10 03:21:19;;;;;;;41.85;24.60;;;;;;;;;;5035121;28;20053;-71
2022/09/10 03:23:46;;;;;;;40.38;23.75;;;;;;;;;;5067660;28;20122;-71
2022/09/10 03:26:13;;;;;;;43.08;23.48;;;;;;;;;;5068759;28;20386;-72
2022/09/10 03:28:40;;;;;;;40.88;23.25;;;;;;;;;;5055862;28;20049;-72
2022/09/10 03:31:06;;;;;;;40.30;24.05;;;;;;;;;;5052640;28;20120;-72
2022/09/10 03:33:33;;;;;;;39.95;23.20;;;;;;;;;;5050821;28;20098;-71
2022/09/10 03:36:00;;;;;;;37.22;22.80;;;;;;;;;;5051850;28;20072;-75
2022/09/10 03:38:26;;;;;;;39.58;23.13;;;;;;;;;;5068199;28;20060;-75
2022/09/10 03:40:53;;;;;;;40.08;22.58;;;;;;;;;;5051931;28;20171;-75
2022/09/10 03:43:21;;;;;;;39.10;22.70;;;;;;;;;;5067758;28;20116;-71
2022/09/10 03:45:50;;;;;;;37.58;22.40;;;;;;;;;;5067773;28;20053;-72
2022/09/10 03:48:20;;;;;;;37.40;22.75;;;;;;;;;;5067539;28;20041;-72
2022/09/10 03:50:48;;;;;;;34.05;21.15;;;;;;;;;;5034191;28;20045;-72
2022/09/10 03:53:14;;;;;;;37.20;21.30;;;;;;;;;;5052025;28;20069;-71
2022/09/10 03:55:44;;;;;;;31.27;20.55;;;;;;;;;;5067753;28;20048;-75
2022/09/10 03:58:10;;;;;;;34.60;20.88;;;;;;;;;;5063893;28;20052;-75
2022/09/10 04:00:36;;;;;;;32.47;19.80;;;;;;;;;;5068209;28;20126;-76
2022/09/10 04:03:04;;;;;;;31.67;19.30;;;;;;;;;;5053846;28;20044;-76
2022/09/10 04:05:31;;;;;;;37.40;20.20;;;;;;;;;;5050775;28;20053;-75
2022/09/10 04:08:01;;;;;;;32.58;18.95;;;;;;;;;;5052055;28;20048;-75
2022/09/10 04:10:30;;;;;;;32.38;19.45;;;;;;;;;;5051356;28;20040;-75
2022/09/10 04:12:56;;;;;;;35.63;19.80;;;;;;;;;;5052805;28;20068;-76
2022/09/10 04:15:23;;;;;;;33.28;18.80;;;;;;;;;;5052596;28;20050;-75
2022/09/10 04:17:53;;;;;;;30.38;18.13;;;;;;;;;;5051238;28;20049;-75
2022/09/10 04:20:24;;;;;;;29.27;18.20;;;;;;;;;;5034665;28;20045;-75
2022/09/10 04:22:50;;;;;;;33.17;19.33;;;;;;;;;;5034650;28;20083;-75
2022/09/10 04:25:17;;;;;;;31.20;18.63;;;;;;;;;;5053562;28;20047;-75
2022/09/10 04:27:43;;;;;;;36.03;18.63;;;;;;;;;;5052214;28;20041;-76
2022/09/10 04:30:09;;;;;;;32.85;19.33;;;;;;;;;;5052452;28;20041;-75
2022/09/10 04:32:36;;;;;;;36.78;18.38;;;;;;;;;;5052364;28;20037;-75
2022/09/10 04:35:02;;;;;;;35.50;19.75;;;;;;;;;;5055148;28;20037;-76
2022/09/10 04:37:29;;;;;;;31.60;18.70;;;;;;;;;;5038611;28;20048;-75
2022/09/10 04:39:55;;;;;;;36.35;19.77;;;;;;;;;;5057706;28;20065;-75
2022/09/10 04:42:21;;;;;;;34.60;19.50;;;;;;;;;;5055564;28;20567;-75
2022/09/10 04:44:48;;;;;;;33.67;19.40;;;;;;;;;;5071445;28;20044;-75
2022/09/10 04:47:14;;;;;;;34.50;19.98;;;;;;;;;;5055583;28;20041;-75
2022/09/10 04:49:41;;;;;;;31.85;19.67;;;;;;;;;;5038382;28;20037;-75
2022/09/10 04:52:07;;;;;;;37.08;19.02;;;;;;;;;;5054991;28;20094;-75
2022/09/10 04:54:33;;;;;;;37.03;20.70;;;;;;;;;;5055874;28;20037;-75
2022/09/10 04:56:59;;;;;;;35.55;18.98;;;;;;;;;;5054855;28;20044;-75
2022/09/10 04:59:26;;;;;;;39.85;19.95;;;;;;;;;;5054860;28;20068;-75
2022/09/10 05:01:53;;;;;;;39.53;20.77;;;;;;;;;;5071681;28;20167;-75
2022/09/10 05:04:19;;;;;;;36.55;19.75;;;;;;;;;;5071535;28;20090;-75
2022/09/10 05:06:47;;;;;;;36.92;19.15;;;;;;;;;;5054683;28;20044;-75
2022/09/10 05:09:13;;;;;;;36.20;18.33;;;;;;;;;;5054650;28;20048;-75
2022/09/10 05:11:39;;;;;;;35.92;19.23;;;;;;;;;;5055658;28;20048;-75
2022/09/10 05:14:06;;;;;;;32.83;17.17;;;;;;;;;;5054495;28;20037;-76
2022/09/10 05:16:32;;;;;;;31.88;18.35;;;;;;;;;;5071337;28;20032;-75
2022/09/10 05:18:58;;;;;;;33.03;19.10;;;;;;;;;;5054509;28;20043;-75
2022/09/10 05:21:25;;;;;;;31.92;18.48;;;;;;;;;;5054626;28;20045;-76
2022/09/10 05:23:51;;;;;;;32.33;19.08;;;;;;;;;;5070794;28;20049;-75
2022/09/10 05:26:17;;;;;;;32.35;18.70;;;;;;;;;;5055718;28;20068;-76
2022/09/10 05:28:43;;;;;;;33.88;19.25;;;;;;;;;;5054268;28;20573;-75
2022/09/10 05:31:09;;;;;;;33.35;19.90;;;;;;;;;;5057836;28;20063;-76
2022/09/10 05:33:39;;;;;;;35.17;19.70;;;;;;;;;;5054202;28;20124;-76
2022/09/10 05:36:07;;;;;;;32.30;19.08;;;;;;;;;;5071195;28;20041;-74
2022/09/10 05:38:34;;;;;;;29.58;18.45;;;;;;;;;;5055593;28;20076;-76
2022/09/10 05:41:00;;;;;;;33.63;19.15;;;;;;;;;;5055972;28;20571;-72
2022/09/10 05:43:26;;;;;;;27.50;18.25;;;;;;;;;;5053778;28;20080;-76
2022/09/10 05:45:53;;;;;;;33.20;18.85;;;;;;;;;;5037300;28;20040;-76
2022/09/10 05:48:20;;;;;;;32.65;18.98;;;;;;;;;;5053907;28;20091;-71
2022/09/10 05:50:46;;;;;;;40.92;21.25;;;;;;;;;;5069554;28;20509;-72
2022/09/10 05:53:12;;;;;;;30.58;18.40;;;;;;;;;;5069894;28;20029;-72
2022/09/10 05:55:38;;;;;;;30.75;18.05;;;;;;;;;;5069910;28;20049;-72
2022/09/10 05:58:04;;;;;;;37.30;20.27;;;;;;;;;;5069427;28;20095;-73
2022/09/10 06:00:31;;;;;;;30.55;18.67;;;;;;;;;;5069712;28;20049;-72
2022/09/10 06:02:57;;;;;;;31.15;18.85;;;;;;;;;;5069807;28;20055;-72
2022/09/10 06:05:23;;;;;;;28.65;16.38;;;;;;;;;;5036179;28;20124;-72
2022/09/10 06:07:49;;;;;;;28.25;15.93;;;;;;;;;;5069384;28;20056;-72
2022/09/10 06:10:16;;;;;;;30.73;17.33;;;;;;;;;;5069162;28;20036;-72
2022/09/10 06:12:45;;;;;;;35.65;18.95;;;;;;;;;;5069276;28;20044;-72
2022/09/10 06:15:11;;;;;;;33.42;18.60;;;;;;;;;;5036152;28;20079;-72
2022/09/10 06:17:38;;;;;;;36.08;19.38;;;;;;;;;;5069154;28;20098;-72
2022/09/10 06:20:05;;;;;;;28.45;18.30;;;;;;;;;;5036071;28;20132;-77
2022/09/10 06:22:31;;;;;;;27.45;16.20;;;;;;;;;;5037087;28;20095;-76
2022/09/10 06:24:57;;;;;;;26.90;17.58;;;;;;;;;;5053688;28;20095;-76
2022/09/10 06:27:24;;;;;;;34.72;18.52;;;;;;;;;;5053243;28;20045;-76
2022/09/10 06:29:50;;;;;;;27.30;16.42;;;;;;;;;;5036421;28;20044;-76
2022/09/10 06:32:16;;;;;;;33.88;19.10;;;;;;;;;;5052553;28;20489;-70
2022/09/10 06:34:42;;;;;;;30.08;17.25;;;;;;;;;;5052215;28;20033;-69
2022/09/10 06:37:08;;;;;;;27.33;17.30;;;;;;;;;;5069057;28;20083;-69
2022/09/10 06:39:35;;;;;;;35.85;20.30;;;;;;;;;;5068906;28;20056;-71
2022/09/10 06:42:01;;;;;;;34.05;19.27;;;;;;;;;;5068616;28;20057;-70
2022/09/10 06:44:28;;;;;;;33.65;19.48;;;;;;;;;;5052449;28;20041;-71
2022/09/10 06:46:54;;;;;;;30.60;18.70;;;;;;;;;;5035246;28;20037;-70
2022/09/10 06:49:20;;;;;;;30.13;17.58;;;;;;;;;;5068586;28;20187;-71
2022/09/10 06:51:48;;;;;;;32.42;18.38;;;;;;;;;;5067770;28;20076;-71
2022/09/10 06:54:15;;;;;;;28.38;18.75;;;;;;;;;;5068655;28;20049;-71
2022/09/10 06:56:41;;;;;;;33.58;19.33;;;;;;;;;;5068641;28;20481;-70
2022/09/10 06:59:08;;;;;;;30.13;19.23;;;;;;;;;;5052009;28;20187;-70
2022/09/10 07:01:34;;;;;;;33.20;18.45;;;;;;;;;;5068423;28;20041;-71
2022/09/10 07:04:01;;;;;;;28.58;18.50;;;;;;;;;;5068414;28;20049;-71
2022/09/10 07:06:32;;;;;;;30.05;17.35;;;;;;;;;;5068731;28;20564;-71
2022/09/10 07:08:58;;;;;;;27.65;18.25;;;;;;;;;;5068104;28;20063;-71
2022/09/10 07:11:25;;;;;;;30.13;17.50;;;;;;;;;;5051352;28;20055;-71
2022/09/10 07:13:52;;;;;;;25.27;17.02;;;;;;;;;;5068001;28;20116;-70
2022/09/10 07:16:22;;;;;;;26.52;16.08;;;;;;;;;;5068374;28;20140;-71
2022/09/10 07:18:53;;;;;;;22.02;15.10;;;;;;;;;;5052564;28;20448;-71
2022/09/10 07:21:19;;;;;;;29.45;16.02;;;;;;;;;;5052511;28;20367;-71
2022/09/10 07:23:50;;;;;;;23.55;14.73;;;;;;;;;;5054189;28;20033;-71
2022/09/10 07:26:18;;;;;;;23.85;14.63;;;;;;;;;;5068316;28;20048;-71
2022/09/10 07:28:44;;;;;;;26.10;14.73;;;;;;;;;;5056368;28;20088;-70
2022/09/10 07:31:22;;;;;;;21.08;14.45;;;;;;;;;;5051390;28;20482;-71
2022/09/10 07:33:48;;;;;;;23.77;15.90;;;;;;;;;;5067667;28;20037;-72
2022/09/10 07:36:15;;;;;;;24.25;15.65;;;;;;;;;;5067830;28;20090;-71
2022/09/10 07:38:42;;;;;;;25.52;14.30;;;;;;;;;;5018458;28;20106;-72
2022/09/10 07:41:10;;;;;;;21.30;14.73;;;;;;;;;;5034308;28;20044;-71
2022/09/10 07:43:37;;;;;;;24.92;15.60;;;;;;;;;;5052288;28;20136;-72
2022/09/10 07:46:04;;;;;;;23.85;15.00;;;;;;;;;;5051993;28;20037;-76
2022/09/10 07:48:30;;;;;;;22.95;13.98;;;;;;;;;;5068538;28;20417;-76
2022/09/10 07:51:04;;;;;;;20.20;14.80;;;;;;;;;;5052907;28;20439;-76
2022/09/10 07:53:30;;;;;;;25.90;15.23;;;;;;;;;;5068414;28;20202;-76
2022/09/10 07:56:04;;;;;;;22.73;15.70;;;;;;;;;;5052796;28;20037;-76
2022/09/10 07:58:31;;;;;;;21.27;15.35;;;;;;;;;;5051495;28;20044;-76
2022/09/10 08:01:01;;;;;;;19.42;14.52;;;;;;;;;;5051275;28;20056;-76
2022/09/10 08:03:28;;;;;;;20.05;14.13;;;;;;;;;;5051146;28;20496;-75
2022/09/10 08:05:55;;;;;;;22.10;15.95;;;;;;;;;;5051800;28;20458;-76
2022/09/10 08:08:21;;;;;;;23.05;15.35;;;;;;;;;;5034689;28;20045;-76
2022/09/10 08:10:48;;;;;;;23.25;14.95;;;;;;;;;;5053201;28;20048;-76
2022/09/10 08:13:15;;;;;;;24.02;15.38;;;;;;;;;;5035399;28;20067;-76
2022/09/10 08:15:42;;;;;;;24.45;16.10;;;;;;;;;;5051809;28;20036;-76
2022/09/10 08:18:09;;;;;;;23.90;16.55;;;;;;;;;;5018984;28;20045;-76
2022/09/10 08:20:35;;;;;;;23.08;15.23;;;;;;;;;;5068292;28;20076;-76
2022/09/10 08:23:02;;;;;;;23.25;15.65;;;;;;;;;;5051468;28;20090;-76
2022/09/10 08:25:28;;;;;;;22.23;15.90;;;;;;;;;;5035028;28;20040;-76
2022/09/10 08:27:54;;;;;;;23.30;15.80;;;;;;;;;;5034911;28;20449;-76
2022/09/10 08:30:20;;;;;;;22.50;15.40;;;;;;;;;;5051479;28;20045;-76
2022/09/10 08:32:47;;;;;;;19.33;14.02;;;;;;;;;;5053068;28;20037;-76
2022/09/10 08:35:13;;;;;;;20.88;13.00;;;;;;;;;;5051777;28;20509;-76
2022/09/10 08:37:40;;;;;;;17.67;12.85;;;;;;;;;;5052380;28;20040;-76
2022/09/10 08:40:06;;;;;;;20.65;13.55;;;;;;;;;;5052349;28;20043;-76
2022/09/10 08:42:41;;;;;;;19.90;12.90;;;;;;;;;;5068252;28;20092;-75
2022/09/10 08:45:13;;;;;;;21.85;14.18;;;;;;;;;;5051100;28;20037;-76
2022/09/10 08:47:42;;;;;;;18.67;12.48;;;;;;;;;;5034574;28;20051;-76
2022/09/10 08:50:12;;;;;;;19.73;14.02;;;;;;;;;;5051384;28;20394;-76
2022/09/10 08:52:47;;;;;;;17.55;12.93;;;;;;;;;;5035064;28;20524;-76
2022/09/10 08:55:22;;;;;;;24.10;13.35;;;;;;;;;;5051426;28;20047;-76
2022/09/10 08:58:01;;;;;;;16.52;12.52;;;;;;;;;;5067633;28;20041;-75
2022/09/10 09:00:33;;;;;;;18.23;11.55;;;;;;;;;;5068577;28;20052;-76
2022/09/10 09:03:03;;;;;;;14.65;11.30;;;;;;;;;;5051638;28;20130;-76
2022/09/10 09:05:35;;;;;;;16.77;10.77;;;;;;;;;;5068388;28;20049;-76
2022/09/10 09:08:02;;;;;;;18.55;10.98;;;;;;;;;;5034477;28;20037;-75
2022/09/10 09:10:32;;;;;;;15.75;12.27;;;;;;;;;;5051419;28;20044;-76
2022/09/10 09:13:17;;;;;;;19.60;11.90;;;;;;;;;;5067682;28;20115;-76
2022/09/10 09:15:50;;;;;;;20.33;11.90;;;;;;;;;;5040938;28;20036;-75
2022/09/10 09:18:16;;;;;;;17.27;12.13;;;;;;;;;;5038476;28;20171;-77
2022/09/10 09:20:46;;;;;;;18.02;12.43;;;;;;;;;;5038251;28;20115;-76
2022/09/10 09:23:20;;;;;;;22.35;12.05;;;;;;;;;;5054478;28;20049;-76
2022/09/10 09:25:47;;;;;;;16.05;11.30;;;;;;;;;;5038447;28;20064;-75
2022/09/10 09:28:18;;;;;;;18.92;11.15;;;;;;;;;;5054375;28;20124;-75
2022/09/10 09:30:48;;;;;;;16.20;10.95;;;;;;;;;;5038156;28;20481;-76
2022/09/10 09:33:16;;;;;;;16.35;10.35;;;;;;;;;;5037837;28;20047;-76
2022/09/10 09:35:51;;;;;;;13.95;9.38;;;;;;;;;;5054494;28;20040;-76
2022/09/10 09:38:23;;;;;;;12.05;8.38;;;;;;;;;;5054428;28;20042;-75
2022/09/10 09:40:51;;;;;;;9.80;7.30;;;;;;;;;;5054424;28;20048;-76
2022/09/10 09:43:32;;;;;;;9.55;6.75;;;;;;;;;;5054134;28;20040;-76
2022/09/10 09:45:59;;;;;;;13.68;7.68;;;;;;;;;;5037506;28;20041;-75
2022/09/10 09:48:28;;;;;;;10.73;7.68;;;;;;;;;;5054169;28;20041;-76
2022/09/10 09:50:59;;;;;;;15.30;8.10;;;;;;;;;;5053940;28;20037;-75
2022/09/10 09:53:26;;;;;;;11.45;6.97;;;;;;;;;;5053935;28;20047;-77
2022/09/10 09:55:54;;;;;;;13.15;6.78;;;;;;;;;;5053966;28;20040;-77
2022/09/10 09:58:20;;;;;;;11.00;6.90;;;;;;;;;;5053276;28;20078;-74
2022/09/10 10:00:48;;;;;;;8.93;5.97;;;;;;;;;;5054107;28;20064;-75
2022/09/10 10:03:34;;;;;;;10.07;5.63;;;;;;;;;;5053562;28;20525;-76
2022/09/10 10:06:01;;;;;;;11.52;6.50;;;;;;;;;;5053797;28;20059;-76
2022/09/10 10:08:27;;;;;;;9.77;7.15;;;;;;;;;;5054627;28;20048;-76
2022/09/10 10:10:54;;;;;;;10.35;7.50;;;;;;;;;;5054892;28;20043;-76
2022/09/10 10:13:21;;;;;;;9.98;7.13;;;;;;;;;;5053493;28;20080;-75
2022/09/10 10:15:47;;;;;;;11.68;7.22;;;;;;;;;;5053941;28;20124;-76
2022/09/10 10:18:23;;;;;;;10.15;6.70;;;;;;;;;;5054824;28;20048;-75
2022/09/10 10:20:48;;;;;;;;;;;;;;;;;;5054053;28;20127;-75
2022/09/10 10:23:16;;;;;;;;;;;;;;;;;;5053918;28;20003;-74
2022/09/10 10:25:46;;;;;;;9.50;6.68;;;;;;;;;;5053830;28;19918;-75
2022/09/10 10:28:20;;;;;;;10.52;6.15;;;;;;;;;;5053391;28;20049;-75
2022/09/10 10:30:50;;;;;;;10.20;7.10;;;;;;;;;;5054520;28;20048;-75
2022/09/10 10:33:18;;;;;;;7.93;5.68;;;;;;;;;;5053383;28;20441;-75
2022/09/10 10:35:44;;;;;;;9.38;6.55;;;;;;;;;;5037429;28;20072;-75
2022/09/10 10:38:13;;;;;;;8.20;6.40;;;;;;;;;;5053223;28;20067;-74
2022/09/10 10:40:59;;;;;;;11.20;7.30;;;;;;;;;;5053495;28;20486;-76
2022/09/10 10:43:25;;;;;;;;;;;;;;;;;;5036729;28;20048;-74
2022/09/10 10:46:04;;;;;;;10.07;6.53;;;;;;;;;;5054191;28;20378;-75
2022/09/10 10:48:30;;;;;;;8.75;5.40;;;;;;;;;;5053141;28;20457;-74
2022/09/10 10:51:26;;;;;;;9.02;5.32;;;;;;;;;;5054257;28;20433;-76
2022/09/10 10:53:55;;;;;;;9.23;5.53;;;;;;;;;;5035988;28;20052;-75
2022/09/10 10:56:35;;;;;;;8.50;5.00;;;;;;;;;;5053908;28;20045;-74
2022/09/10 10:59:20;;;;;;;6.75;4.18;;;;;;;;;;5052739;28;20069;-75
2022/09/10 11:01:50;;;;;;;8.23;4.75;;;;;;;;;;5052514;28;20048;-74
2022/09/10 11:04:16;;;;;;;7.88;4.20;;;;;;;;;;5052701;28;20064;-75
2022/09/10 11:06:46;;;;;;;6.03;3.80;;;;;;;;;;5052284;28;20045;-74
2022/09/10 11:09:32;;;;;;;4.60;2.90;;;;;;;;;;5052739;28;20140;-75
2022/09/10 11:12:18;;;;;;;5.63;3.33;;;;;;;;;;5052928;28;20036;-76
2022/09/10 11:14:49;;;;;;;6.03;3.40;;;;;;;;;;5052419;28;20521;-71
2022/09/10 11:17:19;;;;;;;5.43;2.83;;;;;;;;;;5051541;28;20041;-71
2022/09/10 11:19:59;;;;;;;5.55;3.20;;;;;;;;;;5051774;28;20406;-71
2022/09/10 11:22:30;;;;;;;6.90;4.00;;;;;;;;;;5051097;28;20041;-71
2022/09/10 11:25:03;;;;;;;5.72;3.72;;;;;;;;;;5051402;28;20123;-69
2022/09/10 11:27:32;;;;;;;6.05;3.70;;;;;;;;;;5048673;28;20382;-71
2022/09/10 11:30:06;;;;;;;6.47;3.63;;;;;;;;;;5026100;28;20098;-70
2022/09/10 11:32:41;;;;;;;4.78;3.00;;;;;;;;;;5051947;28;20041;-69
2022/09/10 11:35:07;;;;;;;;;;;;;;;;;;5052955;28;20040;-70
2022/09/10 11:37:52;;;;;;;6.07;3.83;;;;;;;;;;5051963;28;19975;-71
2022/09/10 11:40:32;;;;;;;7.80;3.85;;;;;;;;;;5051288;28;20064;-71
2022/09/10 11:43:02;;;;;;;7.93;3.67;;;;;;;;;;5051337;28;20111;-71
2022/09/10 11:45:41;;;;;;;6.05;3.63;;;;;;;;;;5052297;28;20375;-71
2022/09/10 11:48:11;;;;;;;5.18;2.90;;;;;;;;;;5051121;28;20564;-70
2022/09/10 11:50:56;;;;;;;6.28;3.95;;;;;;;;;;5050841;28;20533;-70
2022/09/10 11:53:23;;;;;;;7.43;3.90;;;;;;;;;;5050597;28;20040;-70
2022/09/10 11:55:56;;;;;;;5.13;3.80;;;;;;;;;;5034485;28;20557;-68
2022/09/10 11:58:31;;;;;;;5.78;4.20;;;;;;;;;;5050307;28;20417;-70
2022/09/10 12:01:18;;;;;;;5.00;3.60;;;;;;;;;;5050663;28;20132;-69
2022/09/10 12:03:52;;;;;;;6.75;4.05;;;;;;;;;;5047401;28;20056;-70
2022/09/10 12:06:27;;;;;;;6.23;3.70;;;;;;;;;;5051134;28;20041;-69
2022/09/10 12:09:06;;;;;;;5.95;3.88;;;;;;;;;;5051825;28;20052;-71
2022/09/10 12:11:45;;;;;;;7.50;4.10;;;;;;;;;;5050748;28;20078;-71
2022/09/10 12:14:16;;;;;;;7.72;4.20;;;;;;;;;;5055011;28;20051;-71
2022/09/10 12:16:45;;;;;;;6.20;4.13;;;;;;;;;;5050309;28;20040;-69
2022/09/10 12:19:28;;;;;;;6.70;3.60;;;;;;;;;;5050406;28;20045;-69
2022/09/10 12:22:04;;;;;;;7.25;3.10;;;;;;;;;;5050562;28;20080;-70
2022/09/10 12:24:31;;;;;;;5.65;3.20;;;;;;;;;;5050427;28;20456;-70
2022/09/10 12:27:01;;;;;;;6.47;3.13;;;;;;;;;;5033731;28;20041;-71
2022/09/10 12:29:31;;;;;;;5.05;3.10;;;;;;;;;;5038644;28;20409;-69
2022/09/10 12:32:14;;;;;;;5.35;3.33;;;;;;;;;;5050462;28;20041;-70
2022/09/10 12:34:41;;;;;;;6.78;3.53;;;;;;;;;;5050223;28;20509;-70
2022/09/10 12:37:18;;;;;;;5.68;3.03;;;;;;;;;;5050267;28;20033;-70
2022/09/10 12:39:45;;;;;;;7.55;3.03;;;;;;;;;;5050436;28;20068;-71
2022/09/10 12:42:31;;;;;;;5.22;2.92;;;;;;;;;;5050673;28;20402;-69
2022/09/10 12:44:57;;;;;;;4.90;2.47;;;;;;;;;;5050449;28;20044;-70
2022/09/10 12:47:29;;;;;;;5.68;2.42;;;;;;;;;;5017603;28;20615;-70
2022/09/10 12:49:56;;;;;;;7.50;2.58;;;;;;;;;;5053377;28;20397;-69
2022/09/10 12:52:34;;;;;;;4.90;2.33;;;;;;;;;;5054610;28;20075;-70
2022/09/10 12:55:14;;;;;;;5.00;2.80;;;;;;;;;;5054512;28;20505;-70
2022/09/10 12:57:49;;;;;;;4.85;2.50;;;;;;;;;;5053871;28;20087;-70
2022/09/10 13:00:26;;;;;;;5.88;3.40;;;;;;;;;;5053876;28;20194;-71
2022/09/10 13:02:57;;;;;;;6.05;3.58;;;;;;;;;;5053862;28;20049;-70
2022/09/10 13:05:27;;;;;;;4.93;3.20;;;;;;;;;;5053589;28;20041;-70
2022/09/10 13:08:19;;;;;;;6.53;3.80;;;;;;;;;;5070414;28;20052;-71
2022/09/10 13:11:08;;;;;;;7.30;4.15;;;;;;;;;;5037231;28;20501;-71
2022/09/10 13:13:41;;;;;;;8.05;4.28;;;;;;;;;;5048041;28;20128;-71
2022/09/10 13:16:11;;;;;;;5.45;3.78;;;;;;;;;;5055073;28;20028;-69
2022/09/10 13:18:37;;;;;;;5.53;3.70;;;;;;;;;;5053434;28;20129;-70
2022/09/10 13:21:22;;;;;;;6.40;4.05;;;;;;;;;;5037160;28;20090;-70
2022/09/10 13:23:49;;;;;;;6.63;3.53;;;;;;;;;;5037003;28;20504;-69
2022/09/10 13:26:32;;;;;;;6.03;3.53;;;;;;;;;;5054861;28;20041;-69
2022/09/10 13:29:00;;;;;;;8.05;3.50;;;;;;;;;;5042904;28;20053;-70
2022/09/10 13:31:30;;;;;;;5.38;3.10;;;;;;;;;;5053677;28;20064;-69
2022/09/10 13:34:14;;;;;;;6.05;3.05;;;;;;;;;;5036449;28;20049;-70
2022/09/10 13:36:59;;;;;;;6.65;2.85;;;;;;;;;;5054113;28;20047;-70
2022/09/10 13:39:39;;;;;;;6.40;3.40;;;;;;;;;;5053293;28;20069;-70
2022/09/10 13:42:23;;;;;;;8.30;4.05;;;;;;;;;;5053246;28;20048;-69
2022/09/10 13:44:49;;;;;;;6.28;3.60;;;;;;;;;;5052850;28;20112;-69
2022/09/10 13:47:23;;;;;;;10.63;3.75;;;;;;;;;;5036456;28;20041;-69
2022/09/10 13:49:59;;;;;;;5.63;2.80;;;;;;;;;;5052788;28;20505;-69
2022/09/10 13:52:45;;;;;;;5.55;3.10;;;;;;;;;;5036331;28;20037;-69
2022/09/10 13:55:17;;;;;;;6.00;3.83;;;;;;;;;;5036468;28;20116;-69
2022/09/10 13:57:44;;;;;;;8.02;3.83;;;;;;;;;;5052511;28;20056;-70
2022/09/10 14:00:30;;;;;;;5.88;3.20;;;;;;;;;;5051422;28;20111;-70
2022/09/10 14:02:58;;;;;;;9.27;4.10;;;;;;;;;;5052422;28;20047;-69
2022/09/10 14:05:27;;;;;;;6.30;3.63;;;;;;;;;;5036043;28;20064;-68
2022/09/10 14:07:58;;;;;;;6.72;3.70;;;;;;;;;;5053699;28;20075;-69
2022/09/10 14:10:25;;;;;;;7.75;3.67;;;;;;;;;;5052704;28;20083;-69
2022/09/10 14:12:52;;;;;;;8.55;3.72;;;;;;;;;;5052389;28;20052;-68
2022/09/10 14:15:22;;;;;;;7.18;4.10;;;;;;;;;;5035994;28;20108;-69
2022/09/10 14:17:56;;;;;;;7.65;3.70;;;;;;;;;;5036016;28;20444;-70
2022/09/10 14:20:29;;;;;;;7.72;3.85;;;;;;;;;;5053833;28;20041;-70
2022/09/10 14:23:01;;;;;;;7.10;3.20;;;;;;;;;;5052101;28;20086;-69
2022/09/10 14:25:32;;;;;;;5.88;2.63;;;;;;;;;;5052402;28;20048;-68
2022/09/10 14:28:18;;;;;;;6.57;3.15;;;;;;;;;;5045835;28;20128;-69
2022/09/10 14:30:45;;;;;;;4.57;2.63;;;;;;;;;;5049469;28;20099;-69
2022/09/10 14:33:21;;;;;;;4.63;2.55;;;;;;;;;;5052305;28;20068;-69
2022/09/10 14:35:50;;;;;;;5.00;2.78;;;;;;;;;;5053328;28;20033;-70
2022/09/10 14:38:36;;;;;;;6.80;2.45;;;;;;;;;;5052142;28;20052;-69
2022/09/10 14:41:18;;;;;;;4.07;2.25;;;;;;;;;;5051860;28;20047;-70